sensor_id;sensor_type;location;lat;lon;timestamp;P1;durP1;ratioP1;P2;durP2;ratioP2
64875;SDS011;51369;49.862;9.908;2023-02-01T00:00:44;6.95;;;4.40;;
64875;SDS011;51369;49.862;9.908;2023-02-01T00:03:10;8.90;;;4.90;;
64875;SDS011;51369;49.862;9.908;2023-02-01T00:05:36;8.63;;;4.50;;
64875;SDS011;51369;49.862;9.908;2023-02-01T00:08:01;6.68;;;4.30;;
64875;SDS011;51369;49.862;9.908;2023-02-01T00:10:27;6.25;;;4.30;;
64875;SDS011;51369;49.862;9.908;2023-02-01T00:12:52;6.20;;;4.22;;
64875;SDS011;51369;49.862;9.908;2023-02-01T00:15:17;7.43;;;4.35;;
64875;SDS011;51369;49.862;9.908;2023-02-01T00:17:43;7.07;;;4.32;;
64875;SDS011;51369;49.862;9.908;2023-02-01T00:20:09;5.13;;;3.80;;
64875;SDS011;51369;49.862;9.908;2023-02-01T00:22:35;5.05;;;4.10;;
64875;SDS011;51369;49.862;9.908;2023-02-01T00:25:00;5.00;;;3.90;;
64875;SDS011;51369;49.862;9.908;2023-02-01T00:27:25;4.72;;;3.83;;
64875;SDS011;51369;49.862;9.908;2023-02-01T00:29:51;7.15;;;4.28;;
64875;SDS011;51369;49.862;9.908;2023-02-01T00:32:16;7.45;;;4.22;;
64875;SDS011;51369;49.862;9.908;2023-02-01T00:34:42;7.70;;;4.80;;
64875;SDS011;51369;49.862;9.908;2023-02-01T00:37:07;8.82;;;4.50;;
64875;SDS011;51369;49.862;9.908;2023-02-01T00:39:33;5.20;;;4.10;;
64875;SDS011;51369;49.862;9.908;2023-02-01T00:41:59;6.40;;;3.95;;
64875;SDS011;51369;49.862;9.908;2023-02-01T00:44:25;5.97;;;4.38;;
64875;SDS011;51369;49.862;9.908;2023-02-01T00:46:52;11.32;;;4.45;;
64875;SDS011;51369;49.862;9.908;2023-02-01T00:49:17;5.50;;;4.20;;
64875;SDS011;51369;49.862;9.908;2023-02-01T00:51:42;7.10;;;4.35;;
64875;SDS011;51369;49.862;9.908;2023-02-01T00:54:08;5.57;;;4.28;;
64875;SDS011;51369;49.862;9.908;2023-02-01T00:56:33;7.78;;;4.18;;
64875;SDS011;51369;49.862;9.908;2023-02-01T00:58:58;8.40;;;4.25;;
64875;SDS011;51369;49.862;9.908;2023-02-01T01:01:25;5.18;;;4.05;;
64875;SDS011;51369;49.862;9.908;2023-02-01T01:03:53;12.02;;;5.40;;
64875;SDS011;51369;49.862;9.908;2023-02-01T01:06:25;9.20;;;4.38;;
64875;SDS011;51369;49.862;9.908;2023-02-01T01:08:52;6.10;;;4.38;;
64875;SDS011;51369;49.862;9.908;2023-02-01T01:11:21;7.78;;;4.40;;
64875;SDS011;51369;49.862;9.908;2023-02-01T01:13:49;11.15;;;4.57;;
64875;SDS011;51369;49.862;9.908;2023-02-01T01:16:16;5.40;;;3.83;;
64875;SDS011;51369;49.862;9.908;2023-02-01T01:18:42;7.75;;;4.43;;
64875;SDS011;51369;49.862;9.908;2023-02-01T01:21:08;6.93;;;4.60;;
64875;SDS011;51369;49.862;9.908;2023-02-01T01:23:34;7.93;;;4.10;;
64875;SDS011;51369;49.862;9.908;2023-02-01T01:26:04;4.95;;;4.38;;
64875;SDS011;51369;49.862;9.908;2023-02-01T01:28:34;6.50;;;4.60;;
64875;SDS011;51369;49.862;9.908;2023-02-01T01:31:00;11.68;;;4.65;;
64875;SDS011;51369;49.862;9.908;2023-02-01T01:33:25;9.75;;;5.25;;
64875;SDS011;51369;49.862;9.908;2023-02-01T01:35:50;8.02;;;5.53;;
64875;SDS011;51369;49.862;9.908;2023-02-01T01:38:16;5.70;;;4.70;;
64875;SDS011;51369;49.862;9.908;2023-02-01T01:40:45;7.93;;;4.45;;
64875;SDS011;51369;49.862;9.908;2023-02-01T01:43:18;7.85;;;4.85;;
64875;SDS011;51369;49.862;9.908;2023-02-01T01:45:47;6.97;;;5.25;;
64875;SDS011;51369;49.862;9.908;2023-02-01T01:48:16;8.93;;;5.38;;
64875;SDS011;51369;49.862;9.908;2023-02-01T01:50:44;9.23;;;5.55;;
64875;SDS011;51369;49.862;9.908;2023-02-01T01:53:25;9.48;;;5.15;;
64875;SDS011;51369;49.862;9.908;2023-02-01T01:55:53;7.25;;;4.55;;
64875;SDS011;51369;49.862;9.908;2023-02-01T01:58:21;7.43;;;4.35;;
64875;SDS011;51369;49.862;9.908;2023-02-01T02:00:50;8.20;;;4.10;;
64875;SDS011;51369;49.862;9.908;2023-02-01T02:03:20;5.07;;;3.78;;
64875;SDS011;51369;49.862;9.908;2023-02-01T02:05:49;7.68;;;4.13;;
64875;SDS011;51369;49.862;9.908;2023-02-01T02:08:19;7.55;;;3.90;;
64875;SDS011;51369;49.862;9.908;2023-02-01T02:10:47;5.28;;;3.78;;
64875;SDS011;51369;49.862;9.908;2023-02-01T02:13:31;7.47;;;3.90;;
64875;SDS011;51369;49.862;9.908;2023-02-01T02:16:20;4.97;;;3.85;;
64875;SDS011;51369;49.862;9.908;2023-02-01T02:30:59;7.15;;;4.20;;
64875;SDS011;51369;49.862;9.908;2023-02-01T02:36:09;6.38;;;3.20;;
64875;SDS011;51369;49.862;9.908;2023-02-01T02:41:33;8.32;;;3.30;;
64875;SDS011;51369;49.862;9.908;2023-02-01T02:47:43;5.93;;;3.50;;
64875;SDS011;51369;49.862;9.908;2023-02-01T02:53:04;6.40;;;3.58;;
64875;SDS011;51369;49.862;9.908;2023-02-01T02:55:54;6.35;;;3.58;;
64875;SDS011;51369;49.862;9.908;2023-02-01T02:58:41;5.32;;;3.55;;
64875;SDS011;51369;49.862;9.908;2023-02-01T03:01:27;7.40;;;3.47;;
64875;SDS011;51369;49.862;9.908;2023-02-01T03:04:13;4.80;;;3.65;;
64875;SDS011;51369;49.862;9.908;2023-02-01T03:06:44;5.20;;;4.47;;
64875;SDS011;51369;49.862;9.908;2023-02-01T03:09:14;8.02;;;5.35;;
64875;SDS011;51369;49.862;9.908;2023-02-01T03:11:46;5.50;;;4.10;;
64875;SDS011;51369;49.862;9.908;2023-02-01T03:14:35;10.10;;;4.47;;
64875;SDS011;51369;49.862;9.908;2023-02-01T03:17:08;6.65;;;4.22;;
64875;SDS011;51369;49.862;9.908;2023-02-01T03:19:40;7.88;;;4.00;;
64875;SDS011;51369;49.862;9.908;2023-02-01T03:22:13;4.78;;;3.90;;
64875;SDS011;51369;49.862;9.908;2023-02-01T03:24:44;6.13;;;4.03;;
64875;SDS011;51369;49.862;9.908;2023-02-01T03:27:16;4.03;;;3.55;;
64875;SDS011;51369;49.862;9.908;2023-02-01T03:29:52;4.85;;;3.80;;
64875;SDS011;51369;49.862;9.908;2023-02-01T03:32:24;4.40;;;3.05;;
64875;SDS011;51369;49.862;9.908;2023-02-01T03:34:49;5.40;;;3.65;;
64875;SDS011;51369;49.862;9.908;2023-02-01T03:37:20;5.70;;;3.22;;
64875;SDS011;51369;49.862;9.908;2023-02-01T03:40:00;6.13;;;3.67;;
64875;SDS011;51369;49.862;9.908;2023-02-01T03:42:34;3.25;;;2.83;;
64875;SDS011;51369;49.862;9.908;2023-02-01T03:47:30;4.75;;;3.15;;
64875;SDS011;51369;49.862;9.908;2023-02-01T03:52:47;2.70;;;2.40;;
64875;SDS011;51369;49.862;9.908;2023-02-01T03:55:18;2.60;;;2.40;;
64875;SDS011;51369;49.862;9.908;2023-02-01T03:57:50;5.10;;;2.80;;
64875;SDS011;51369;49.862;9.908;2023-02-01T04:00:23;3.45;;;2.40;;
64875;SDS011;51369;49.862;9.908;2023-02-01T04:02:50;4.22;;;2.55;;
64875;SDS011;51369;49.862;9.908;2023-02-01T04:05:17;3.53;;;2.50;;
64875;SDS011;51369;49.862;9.908;2023-02-01T04:07:51;2.97;;;2.30;;
64875;SDS011;51369;49.862;9.908;2023-02-01T04:10:16;4.03;;;2.80;;
64875;SDS011;51369;49.862;9.908;2023-02-01T04:12:41;5.82;;;2.60;;
64875;SDS011;51369;49.862;9.908;2023-02-01T04:15:07;3.25;;;2.40;;
64875;SDS011;51369;49.862;9.908;2023-02-01T04:17:33;6.15;;;2.92;;
64875;SDS011;51369;49.862;9.908;2023-02-01T04:19:59;8.23;;;2.72;;
64875;SDS011;51369;49.862;9.908;2023-02-01T04:22:24;4.97;;;2.47;;
64875;SDS011;51369;49.862;9.908;2023-02-01T04:24:50;3.85;;;2.60;;
64875;SDS011;51369;49.862;9.908;2023-02-01T04:27:15;4.47;;;2.88;;
64875;SDS011;51369;49.862;9.908;2023-02-01T04:29:40;4.78;;;2.45;;
64875;SDS011;51369;49.862;9.908;2023-02-01T04:32:06;6.55;;;2.55;;
64875;SDS011;51369;49.862;9.908;2023-02-01T04:34:31;8.85;;;2.42;;
64875;SDS011;51369;49.862;9.908;2023-02-01T04:36:57;8.10;;;2.55;;
64875;SDS011;51369;49.862;9.908;2023-02-01T04:39:22;6.45;;;2.10;;
64875;SDS011;51369;49.862;9.908;2023-02-01T04:41:48;9.18;;;2.38;;
64875;SDS011;51369;49.862;9.908;2023-02-01T04:44:17;7.95;;;2.28;;
64875;SDS011;51369;49.862;9.908;2023-02-01T04:46:43;6.78;;;2.03;;
64875;SDS011;51369;49.862;9.908;2023-02-01T04:49:10;6.63;;;2.17;;
64875;SDS011;51369;49.862;9.908;2023-02-01T04:51:36;9.63;;;2.30;;
64875;SDS011;51369;49.862;9.908;2023-02-01T04:54:01;6.57;;;2.10;;
64875;SDS011;51369;49.862;9.908;2023-02-01T04:56:27;6.43;;;1.92;;
64875;SDS011;51369;49.862;9.908;2023-02-01T04:58:52;10.13;;;2.55;;
64875;SDS011;51369;49.862;9.908;2023-02-01T05:01:18;7.88;;;2.45;;
64875;SDS011;51369;49.862;9.908;2023-02-01T05:03:44;12.32;;;2.22;;
64875;SDS011;51369;49.862;9.908;2023-02-01T05:06:09;6.18;;;2.03;;
64875;SDS011;51369;49.862;9.908;2023-02-01T05:08:35;8.07;;;2.20;;
64875;SDS011;51369;49.862;9.908;2023-02-01T05:11:01;8.85;;;2.47;;
64875;SDS011;51369;49.862;9.908;2023-02-01T05:13:29;9.80;;;2.25;;
64875;SDS011;51369;49.862;9.908;2023-02-01T05:16:13;9.25;;;2.55;;
64875;SDS011;51369;49.862;9.908;2023-02-01T05:18:39;19.25;;;2.25;;
64875;SDS011;51369;49.862;9.908;2023-02-01T05:21:04;9.57;;;2.10;;
64875;SDS011;51369;49.862;9.908;2023-02-01T05:23:30;5.70;;;2.10;;
64875;SDS011;51369;49.862;9.908;2023-02-01T05:25:59;14.98;;;2.78;;
64875;SDS011;51369;49.862;9.908;2023-02-01T05:28:25;9.38;;;2.00;;
64875;SDS011;51369;49.862;9.908;2023-02-01T05:30:51;12.23;;;2.13;;
64875;SDS011;51369;49.862;9.908;2023-02-01T05:33:17;9.25;;;2.00;;
64875;SDS011;51369;49.862;9.908;2023-02-01T05:35:42;5.93;;;2.22;;
64875;SDS011;51369;49.862;9.908;2023-02-01T05:38:07;9.15;;;1.75;;
64875;SDS011;51369;49.862;9.908;2023-02-01T05:40:34;3.45;;;1.35;;
64875;SDS011;51369;49.862;9.908;2023-02-01T05:42:59;5.90;;;2.08;;
64875;SDS011;51369;49.862;9.908;2023-02-01T05:45:24;3.28;;;1.70;;
64875;SDS011;51369;49.862;9.908;2023-02-01T05:47:50;6.85;;;1.70;;
64875;SDS011;51369;49.862;9.908;2023-02-01T05:50:16;4.22;;;1.20;;
64875;SDS011;51369;49.862;9.908;2023-02-01T05:52:41;2.80;;;1.48;;
64875;SDS011;51369;49.862;9.908;2023-02-01T05:55:07;2.40;;;1.65;;
64875;SDS011;51369;49.862;9.908;2023-02-01T05:57:33;3.90;;;1.83;;
64875;SDS011;51369;49.862;9.908;2023-02-01T05:59:58;5.72;;;2.20;;
64875;SDS011;51369;49.862;9.908;2023-02-01T06:02:24;4.13;;;1.67;;
64875;SDS011;51369;49.862;9.908;2023-02-01T06:04:50;5.68;;;1.98;;
64875;SDS011;51369;49.862;9.908;2023-02-01T06:07:16;5.43;;;2.03;;
64875;SDS011;51369;49.862;9.908;2023-02-01T06:09:42;5.68;;;2.10;;
64875;SDS011;51369;49.862;9.908;2023-02-01T06:12:07;7.30;;;2.38;;
64875;SDS011;51369;49.862;9.908;2023-02-01T06:14:33;5.90;;;2.05;;
64875;SDS011;51369;49.862;9.908;2023-02-01T06:16:58;9.10;;;2.65;;
64875;SDS011;51369;49.862;9.908;2023-02-01T06:19:23;5.43;;;2.60;;
64875;SDS011;51369;49.862;9.908;2023-02-01T06:21:50;4.30;;;2.03;;
64875;SDS011;51369;49.862;9.908;2023-02-01T06:24:15;5.05;;;2.05;;
64875;SDS011;51369;49.862;9.908;2023-02-01T06:26:41;3.58;;;2.25;;
64875;SDS011;51369;49.862;9.908;2023-02-01T06:29:07;5.03;;;2.58;;
64875;SDS011;51369;49.862;9.908;2023-02-01T06:31:35;3.42;;;2.42;;
64875;SDS011;51369;49.862;9.908;2023-02-01T06:34:00;9.05;;;3.15;;
64875;SDS011;51369;49.862;9.908;2023-02-01T06:36:26;6.72;;;2.72;;
64875;SDS011;51369;49.862;9.908;2023-02-01T06:38:51;5.88;;;2.78;;
64875;SDS011;51369;49.862;9.908;2023-02-01T06:41:17;6.85;;;2.63;;
64875;SDS011;51369;49.862;9.908;2023-02-01T06:43:42;6.97;;;2.83;;
64875;SDS011;51369;49.862;9.908;2023-02-01T06:46:11;10.48;;;2.42;;
64875;SDS011;51369;49.862;9.908;2023-02-01T06:48:37;7.35;;;2.72;;
64875;SDS011;51369;49.862;9.908;2023-02-01T06:51:03;7.28;;;3.13;;
64875;SDS011;51369;49.862;9.908;2023-02-01T06:53:29;8.57;;;3.05;;
64875;SDS011;51369;49.862;9.908;2023-02-01T06:55:55;6.88;;;2.97;;
64875;SDS011;51369;49.862;9.908;2023-02-01T06:58:22;10.43;;;3.63;;
64875;SDS011;51369;49.862;9.908;2023-02-01T07:00:48;10.50;;;3.35;;
64875;SDS011;51369;49.862;9.908;2023-02-01T07:03:13;11.93;;;3.45;;
64875;SDS011;51369;49.862;9.908;2023-02-01T07:05:40;10.20;;;3.35;;
64875;SDS011;51369;49.862;9.908;2023-02-01T07:08:05;12.25;;;3.30;;
64875;SDS011;51369;49.862;9.908;2023-02-01T07:10:31;14.00;;;3.40;;
64875;SDS011;51369;49.862;9.908;2023-02-01T07:12:59;11.23;;;3.50;;
64875;SDS011;51369;49.862;9.908;2023-02-01T07:15:25;7.60;;;3.00;;
64875;SDS011;51369;49.862;9.908;2023-02-01T07:17:50;9.18;;;3.42;;
64875;SDS011;51369;49.862;9.908;2023-02-01T07:20:15;13.25;;;3.42;;
64875;SDS011;51369;49.862;9.908;2023-02-01T07:22:41;8.60;;;3.30;;
64875;SDS011;51369;49.862;9.908;2023-02-01T07:25:06;14.52;;;3.70;;
64875;SDS011;51369;49.862;9.908;2023-02-01T07:27:35;12.27;;;3.55;;
64875;SDS011;51369;49.862;9.908;2023-02-01T07:30:02;9.10;;;3.53;;
64875;SDS011;51369;49.862;9.908;2023-02-01T07:32:28;10.57;;;3.60;;
64875;SDS011;51369;49.862;9.908;2023-02-01T07:34:55;17.25;;;4.25;;
64875;SDS011;51369;49.862;9.908;2023-02-01T07:37:20;13.20;;;3.72;;
64875;SDS011;51369;49.862;9.908;2023-02-01T07:39:46;16.42;;;4.10;;
64875;SDS011;51369;49.862;9.908;2023-02-01T07:42:11;18.27;;;3.83;;
64875;SDS011;51369;49.862;9.908;2023-02-01T07:44:36;16.80;;;4.85;;
64875;SDS011;51369;49.862;9.908;2023-02-01T07:47:02;8.38;;;3.47;;
64875;SDS011;51369;49.862;9.908;2023-02-01T07:49:27;8.27;;;3.70;;
64875;SDS011;51369;49.862;9.908;2023-02-01T07:51:52;15.30;;;3.78;;
64875;SDS011;51369;49.862;9.908;2023-02-01T07:54:18;17.65;;;4.13;;
64875;SDS011;51369;49.862;9.908;2023-02-01T07:56:44;12.85;;;4.32;;
64875;SDS011;51369;49.862;9.908;2023-02-01T07:59:09;21.27;;;3.78;;
64875;SDS011;51369;49.862;9.908;2023-02-01T08:01:35;11.80;;;4.57;;
64875;SDS011;51369;49.862;9.908;2023-02-01T08:04:01;16.23;;;4.22;;
64875;SDS011;51369;49.862;9.908;2023-02-01T08:06:29;10.30;;;3.03;;
64875;SDS011;51369;49.862;9.908;2023-02-01T08:08:56;15.55;;;3.97;;
64875;SDS011;51369;49.862;9.908;2023-02-01T08:11:23;13.18;;;3.15;;
64875;SDS011;51369;49.862;9.908;2023-02-01T08:13:49;10.07;;;3.70;;
64875;SDS011;51369;49.862;9.908;2023-02-01T08:16:16;13.32;;;2.85;;
64875;SDS011;51369;49.862;9.908;2023-02-01T08:18:42;14.98;;;3.92;;
64875;SDS011;51369;49.862;9.908;2023-02-01T08:21:10;7.28;;;3.33;;
64875;SDS011;51369;49.862;9.908;2023-02-01T08:23:37;15.57;;;3.92;;
64875;SDS011;51369;49.862;9.908;2023-02-01T08:26:14;18.50;;;3.67;;
64875;SDS011;51369;49.862;9.908;2023-02-01T08:28:45;9.13;;;2.70;;
64875;SDS011;51369;49.862;9.908;2023-02-01T08:31:14;9.13;;;3.15;;
64875;SDS011;51369;49.862;9.908;2023-02-01T08:33:41;11.25;;;3.38;;
64875;SDS011;51369;49.862;9.908;2023-02-01T08:36:08;9.80;;;2.95;;
64875;SDS011;51369;49.862;9.908;2023-02-01T08:38:34;16.20;;;3.17;;
64875;SDS011;51369;49.862;9.908;2023-02-01T08:41:05;6.63;;;2.97;;
64875;SDS011;51369;49.862;9.908;2023-02-01T08:43:38;18.35;;;3.33;;
64875;SDS011;51369;49.862;9.908;2023-02-01T08:46:04;11.57;;;3.03;;
64875;SDS011;51369;49.862;9.908;2023-02-01T08:48:31;9.50;;;2.70;;
64875;SDS011;51369;49.862;9.908;2023-02-01T08:50:57;9.18;;;2.75;;
64875;SDS011;51369;49.862;9.908;2023-02-01T08:53:25;6.13;;;2.70;;
64875;SDS011;51369;49.862;9.908;2023-02-01T08:55:50;12.95;;;2.80;;
64875;SDS011;51369;49.862;9.908;2023-02-01T08:58:16;14.60;;;3.03;;
64875;SDS011;51369;49.862;9.908;2023-02-01T09:00:42;9.02;;;2.90;;
64875;SDS011;51369;49.862;9.908;2023-02-01T09:03:10;9.30;;;2.80;;
64875;SDS011;51369;49.862;9.908;2023-02-01T09:05:36;29.95;;;3.20;;
64875;SDS011;51369;49.862;9.908;2023-02-01T09:08:01;19.05;;;3.08;;
64875;SDS011;51369;49.862;9.908;2023-02-01T09:10:27;11.35;;;2.60;;
64875;SDS011;51369;49.862;9.908;2023-02-01T09:12:52;11.73;;;2.60;;
64875;SDS011;51369;49.862;9.908;2023-02-01T09:15:17;14.85;;;2.85;;
64875;SDS011;51369;49.862;9.908;2023-02-01T09:17:43;13.15;;;3.88;;
64875;SDS011;51369;49.862;9.908;2023-02-01T09:20:09;8.50;;;2.33;;
64875;SDS011;51369;49.862;9.908;2023-02-01T09:22:35;5.00;;;2.60;;
64875;SDS011;51369;49.862;9.908;2023-02-01T09:25:00;12.10;;;2.88;;
64875;SDS011;51369;49.862;9.908;2023-02-01T09:27:25;7.97;;;2.65;;
64875;SDS011;51369;49.862;9.908;2023-02-01T09:29:51;9.98;;;2.33;;
64875;SDS011;51369;49.862;9.908;2023-02-01T09:32:21;14.20;;;3.33;;
64875;SDS011;51369;49.862;9.908;2023-02-01T09:34:48;7.57;;;2.28;;
64875;SDS011;51369;49.862;9.908;2023-02-01T09:37:14;8.15;;;2.50;;
64875;SDS011;51369;49.862;9.908;2023-02-01T09:39:40;13.38;;;2.47;;
64875;SDS011;51369;49.862;9.908;2023-02-01T09:47:17;12.27;;;2.50;;
64875;SDS011;51369;49.862;9.908;2023-02-01T09:52:45;13.10;;;2.20;;
64875;SDS011;51369;49.862;9.908;2023-02-01T09:55:19;10.75;;;2.58;;
64875;SDS011;51369;49.862;9.908;2023-02-01T10:00:46;11.30;;;2.65;;
64875;SDS011;51369;49.862;9.908;2023-02-01T10:03:17;10.45;;;2.22;;
64875;SDS011;51369;49.862;9.908;2023-02-01T10:08:37;11.18;;;3.47;;
64875;SDS011;51369;49.862;9.908;2023-02-01T10:11:27;12.07;;;2.88;;
64875;SDS011;51369;49.862;9.908;2023-02-01T10:14:36;12.18;;;2.70;;
64875;SDS011;51369;49.862;9.908;2023-02-01T10:17:13;7.50;;;1.90;;
64875;SDS011;51369;49.862;9.908;2023-02-01T10:28:15;10.93;;;3.35;;
64875;SDS011;51369;49.862;9.908;2023-02-01T10:30:43;15.02;;;2.60;;
64875;SDS011;51369;49.862;9.908;2023-02-01T10:33:44;13.90;;;2.85;;
64875;SDS011;51369;49.862;9.908;2023-02-01T10:38:42;12.80;;;2.65;;
64875;SDS011;51369;49.862;9.908;2023-02-01T10:41:11;8.70;;;2.40;;
64875;SDS011;51369;49.862;9.908;2023-02-01T10:43:40;9.82;;;2.08;;
64875;SDS011;51369;49.862;9.908;2023-02-01T10:46:06;11.35;;;2.72;;
64875;SDS011;51369;49.862;9.908;2023-02-01T10:48:32;8.65;;;1.98;;
64875;SDS011;51369;49.862;9.908;2023-02-01T10:50:59;15.38;;;2.85;;
64875;SDS011;51369;49.862;9.908;2023-02-01T10:53:47;17.48;;;2.80;;
64875;SDS011;51369;49.862;9.908;2023-02-01T10:56:22;16.15;;;3.58;;
64875;SDS011;51369;49.862;9.908;2023-02-01T10:58:49;8.05;;;2.10;;
64875;SDS011;51369;49.862;9.908;2023-02-01T11:01:18;10.50;;;2.63;;
64875;SDS011;51369;49.862;9.908;2023-02-01T11:03:53;13.25;;;2.50;;
64875;SDS011;51369;49.862;9.908;2023-02-01T11:06:31;15.93;;;2.95;;
64875;SDS011;51369;49.862;9.908;2023-02-01T11:11:30;17.35;;;3.22;;
64875;SDS011;51369;49.862;9.908;2023-02-01T11:14:00;12.63;;;2.70;;
64875;SDS011;51369;49.862;9.908;2023-02-01T11:16:36;14.48;;;3.03;;
64875;SDS011;51369;49.862;9.908;2023-02-01T11:19:03;7.72;;;2.67;;
64875;SDS011;51369;49.862;9.908;2023-02-01T11:21:29;13.75;;;2.60;;
64875;SDS011;51369;49.862;9.908;2023-02-01T11:24:00;17.10;;;2.92;;
64875;SDS011;51369;49.862;9.908;2023-02-01T11:26:28;11.25;;;3.05;;
64875;SDS011;51369;49.862;9.908;2023-02-01T11:29:13;7.90;;;2.22;;
64875;SDS011;51369;49.862;9.908;2023-02-01T11:31:42;10.82;;;2.95;;
64875;SDS011;51369;49.862;9.908;2023-02-01T11:34:24;13.88;;;2.78;;
64875;SDS011;51369;49.862;9.908;2023-02-01T11:36:53;10.07;;;2.13;;
64875;SDS011;51369;49.862;9.908;2023-02-01T11:39:29;9.23;;;2.50;;
64875;SDS011;51369;49.862;9.908;2023-02-01T11:42:04;11.55;;;2.33;;
64875;SDS011;51369;49.862;9.908;2023-02-01T11:44:32;5.30;;;1.70;;
64875;SDS011;51369;49.862;9.908;2023-02-01T11:47:19;8.93;;;2.47;;
64875;SDS011;51369;49.862;9.908;2023-02-01T11:49:47;6.47;;;2.47;;
64875;SDS011;51369;49.862;9.908;2023-02-01T11:57:42;8.95;;;2.35;;
64875;SDS011;51369;49.862;9.908;2023-02-01T12:01:20;14.40;;;2.70;;
64875;SDS011;51369;49.862;9.908;2023-02-01T12:06:07;8.93;;;2.03;;
64875;SDS011;51369;49.862;9.908;2023-02-01T12:16:32;6.65;;;1.90;;
64875;SDS011;51369;49.862;9.908;2023-02-01T12:38:20;10.18;;;2.38;;
64875;SDS011;51369;49.862;9.908;2023-02-01T12:46:28;12.80;;;2.47;;
64875;SDS011;51369;49.862;9.908;2023-02-01T12:51:50;15.50;;;2.35;;
64875;SDS011;51369;49.862;9.908;2023-02-01T12:57:12;13.38;;;2.22;;
64875;SDS011;51369;49.862;9.908;2023-02-01T13:07:56;6.15;;;1.58;;
64875;SDS011;51369;49.862;9.908;2023-02-01T13:13:16;8.90;;;1.83;;
64875;SDS011;51369;49.862;9.908;2023-02-01T13:18:35;6.60;;;1.52;;
64875;SDS011;51369;49.862;9.908;2023-02-01T13:21:07;6.72;;;1.70;;
64875;SDS011;51369;49.862;9.908;2023-02-01T13:23:39;12.38;;;2.67;;
64875;SDS011;51369;49.862;9.908;2023-02-01T13:26:05;9.45;;;1.90;;
64875;SDS011;51369;49.862;9.908;2023-02-01T13:28:34;8.40;;;1.80;;
64875;SDS011;51369;49.862;9.908;2023-02-01T13:41:55;10.48;;;2.70;;
64875;SDS011;51369;49.862;9.908;2023-02-01T13:44:40;9.90;;;2.00;;
64875;SDS011;51369;49.862;9.908;2023-02-01T13:49:59;7.65;;;2.10;;
64875;SDS011;51369;49.862;9.908;2023-02-01T13:52:33;9.55;;;1.95;;
64875;SDS011;51369;49.862;9.908;2023-02-01T13:55:15;10.52;;;2.60;;
64875;SDS011;51369;49.862;9.908;2023-02-01T13:57:51;14.30;;;2.72;;
64875;SDS011;51369;49.862;9.908;2023-02-01T14:00:29;10.07;;;2.40;;
64875;SDS011;51369;49.862;9.908;2023-02-01T14:10:54;11.60;;;2.78;;
64875;SDS011;51369;49.862;9.908;2023-02-01T14:16:10;12.95;;;2.25;;
64875;SDS011;51369;49.862;9.908;2023-02-01T14:23:38;7.63;;;1.83;;
64875;SDS011;51369;49.862;9.908;2023-02-01T14:26:06;11.98;;;2.30;;
64875;SDS011;51369;49.862;9.908;2023-02-01T14:28:35;7.50;;;2.47;;
64875;SDS011;51369;49.862;9.908;2023-02-01T14:31:13;11.35;;;2.67;;
64875;SDS011;51369;49.862;9.908;2023-02-01T14:33:41;12.65;;;2.40;;
64875;SDS011;51369;49.862;9.908;2023-02-01T14:36:09;8.55;;;1.65;;
64875;SDS011;51369;49.862;9.908;2023-02-01T14:38:37;14.18;;;2.28;;
64875;SDS011;51369;49.862;9.908;2023-02-01T14:52:17;12.10;;;2.03;;
64875;SDS011;51369;49.862;9.908;2023-02-01T14:54:49;12.68;;;2.60;;
64875;SDS011;51369;49.862;9.908;2023-02-01T14:57:19;20.40;;;4.68;;
64875;SDS011;51369;49.862;9.908;2023-02-01T14:59:49;10.93;;;2.90;;
64875;SDS011;51369;49.862;9.908;2023-02-01T15:02:24;5.13;;;1.83;;
64875;SDS011;51369;49.862;9.908;2023-02-01T15:04:55;13.25;;;2.50;;
64875;SDS011;51369;49.862;9.908;2023-02-01T15:07:23;12.85;;;2.33;;
64875;SDS011;51369;49.862;9.908;2023-02-01T15:09:51;11.30;;;2.03;;
64875;SDS011;51369;49.862;9.908;2023-02-01T15:12:18;12.70;;;2.20;;
64875;SDS011;51369;49.862;9.908;2023-02-01T15:17:50;11.13;;;2.33;;
64875;SDS011;51369;49.862;9.908;2023-02-01T15:20:21;11.05;;;1.92;;
64875;SDS011;51369;49.862;9.908;2023-02-01T15:22:52;8.43;;;1.92;;
64875;SDS011;51369;49.862;9.908;2023-02-01T15:25:24;8.20;;;1.88;;
64875;SDS011;51369;49.862;9.908;2023-02-01T15:27:54;13.07;;;2.63;;
64875;SDS011;51369;49.862;9.908;2023-02-01T15:30:22;14.85;;;2.13;;
64875;SDS011;51369;49.862;9.908;2023-02-01T15:32:50;8.30;;;2.30;;
64875;SDS011;51369;49.862;9.908;2023-02-01T15:38:20;4.43;;;1.63;;
64875;SDS011;51369;49.862;9.908;2023-02-01T15:40:55;14.88;;;2.20;;
64875;SDS011;51369;49.862;9.908;2023-02-01T15:43:24;11.50;;;2.20;;
64875;SDS011;51369;49.862;9.908;2023-02-01T15:45:50;16.05;;;2.38;;
64875;SDS011;51369;49.862;9.908;2023-02-01T15:48:22;8.57;;;1.83;;
64875;SDS011;51369;49.862;9.908;2023-02-01T15:50:50;15.48;;;2.17;;
64875;SDS011;51369;49.862;9.908;2023-02-01T15:53:18;9.85;;;2.00;;
64875;SDS011;51369;49.862;9.908;2023-02-01T15:55:46;14.77;;;2.58;;
64875;SDS011;51369;49.862;9.908;2023-02-01T15:58:17;13.02;;;2.20;;
64875;SDS011;51369;49.862;9.908;2023-02-01T16:00:51;11.38;;;2.38;;
64875;SDS011;51369;49.862;9.908;2023-02-01T16:05:59;10.85;;;2.17;;
64875;SDS011;51369;49.862;9.908;2023-02-01T16:08:27;12.60;;;1.95;;
64875;SDS011;51369;49.862;9.908;2023-02-01T16:11:01;11.65;;;3.17;;
64875;SDS011;51369;49.862;9.908;2023-02-01T16:13:45;11.35;;;2.10;;
64875;SDS011;51369;49.862;9.908;2023-02-01T16:16:10;10.30;;;1.70;;
64875;SDS011;51369;49.862;9.908;2023-02-01T16:18:39;11.65;;;2.00;;
64875;SDS011;51369;49.862;9.908;2023-02-01T16:21:05;11.45;;;2.22;;
64875;SDS011;51369;49.862;9.908;2023-02-01T16:23:33;8.98;;;2.20;;
64875;SDS011;51369;49.862;9.908;2023-02-01T16:25:59;11.13;;;2.20;;
64875;SDS011;51369;49.862;9.908;2023-02-01T16:28:25;13.15;;;2.78;;
64875;SDS011;51369;49.862;9.908;2023-02-01T16:30:51;6.28;;;2.10;;
64875;SDS011;51369;49.862;9.908;2023-02-01T16:33:18;10.77;;;2.35;;
64875;SDS011;51369;49.862;9.908;2023-02-01T16:35:47;9.05;;;2.42;;
64875;SDS011;51369;49.862;9.908;2023-02-01T16:38:14;9.75;;;2.05;;
64875;SDS011;51369;49.862;9.908;2023-02-01T16:40:44;10.90;;;2.50;;
64875;SDS011;51369;49.862;9.908;2023-02-01T16:45:42;7.60;;;2.47;;
64875;SDS011;51369;49.862;9.908;2023-02-01T16:48:25;14.02;;;2.78;;
64875;SDS011;51369;49.862;9.908;2023-02-01T16:50:54;4.85;;;2.05;;
64875;SDS011;51369;49.862;9.908;2023-02-01T16:53:22;11.60;;;3.55;;
64875;SDS011;51369;49.862;9.908;2023-02-01T16:55:49;9.57;;;2.33;;
64875;SDS011;51369;49.862;9.908;2023-02-01T16:58:15;7.25;;;1.90;;
64875;SDS011;51369;49.862;9.908;2023-02-01T17:00:42;12.52;;;2.30;;
64875;SDS011;51369;49.862;9.908;2023-02-01T17:03:09;13.23;;;2.50;;
64875;SDS011;51369;49.862;9.908;2023-02-01T17:05:42;14.70;;;2.50;;
64875;SDS011;51369;49.862;9.908;2023-02-01T17:08:11;10.52;;;1.63;;
64875;SDS011;51369;49.862;9.908;2023-02-01T17:10:39;7.28;;;2.47;;
64875;SDS011;51369;49.862;9.908;2023-02-01T17:13:04;9.60;;;1.98;;
64875;SDS011;51369;49.862;9.908;2023-02-01T17:15:31;17.63;;;3.03;;
64875;SDS011;51369;49.862;9.908;2023-02-01T17:17:59;14.73;;;2.53;;
64875;SDS011;51369;49.862;9.908;2023-02-01T17:20:26;12.13;;;2.33;;
64875;SDS011;51369;49.862;9.908;2023-02-01T17:22:54;11.85;;;2.60;;
64875;SDS011;51369;49.862;9.908;2023-02-01T17:25:20;10.00;;;2.33;;
64875;SDS011;51369;49.862;9.908;2023-02-01T17:27:46;9.98;;;2.35;;
64875;SDS011;51369;49.862;9.908;2023-02-01T17:30:12;9.13;;;2.35;;
64875;SDS011;51369;49.862;9.908;2023-02-01T17:32:38;11.55;;;2.83;;
64875;SDS011;51369;49.862;9.908;2023-02-01T17:35:04;7.32;;;2.10;;
64875;SDS011;51369;49.862;9.908;2023-02-01T17:37:32;9.60;;;2.00;;
64875;SDS011;51369;49.862;9.908;2023-02-01T17:39:59;9.20;;;1.98;;
64875;SDS011;51369;49.862;9.908;2023-02-01T17:42:26;15.60;;;3.35;;